Time;durP1;ratioP1;P1;durP2;ratioP2;P2;SDS_P1;SDS_P2;PMS_P1;PMS_P2;Temp;Humidity;BMP_temperature;BMP_pressure;BME280_temperature;BME280_humidity;BME280_pressure;Samples;Min_cycle;Max_cycle;Signal;HPM_P1;HPM_P2
2022/03/09 00:00:09;;;;;;;2.20;1.93;;;0.10;45.20;-0.80;98856.00;;;;5074661;28;20202;-75
2022/03/09 00:02:36;;;;;;;1.20;1.20;;;0.10;45.60;-0.70;98856.00;;;;5074671;28;20287;-75
2022/03/09 00:05:05;;;;;;;1.53;1.43;;;0.10;45.30;-0.80;98848.00;;;;5074404;28;20657;-75
2022/03/09 00:07:31;;;;;;;2.43;2.27;;;0.10;45.00;-0.80;98855.00;;;;5074418;28;20354;-74
2022/03/09 00:09:58;;;;;;;1.70;1.60;;;0.00;44.80;-0.90;98853.00;;;;5075102;28;20215;-76
2022/03/09 00:12:26;;;;;;;1.30;1.30;;;0.00;44.80;-1.00;98854.00;;;;5074996;28;20258;-76
2022/03/09 00:14:52;;;;;;;1.40;1.40;;;-0.10;45.40;-1.20;98845.00;;;;5074386;28;20257;-75
2022/03/09 00:17:21;;;;;;;2.57;1.97;;;-0.10;45.60;-1.00;98847.00;;;;5074257;28;20207;-75
2022/03/09 00:19:48;;;;;;;1.73;1.63;;;-0.10;46.30;-1.00;98843.00;;;;5074277;28;20314;-75
2022/03/09 00:22:14;;;;;;;1.63;1.53;;;-0.20;46.20;-1.10;98841.00;;;;5074168;28;20191;-74
2022/03/09 00:24:41;;;;;;;2.23;2.03;;;-0.10;46.40;-1.10;98847.00;;;;5074178;28;20268;-75
2022/03/09 00:27:10;;;;;;;2.07;1.97;;;-0.20;46.50;-1.20;98853.00;;;;5056432;28;20211;-75
2022/03/09 00:29:37;;;;;;;2.03;1.87;;;-0.20;46.90;-1.20;98859.00;;;;5074039;28;20277;-75
2022/03/09 00:32:06;;;;;;;2.37;2.20;;;-0.30;47.30;-1.10;98856.00;;;;5073982;28;20218;-75
2022/03/09 00:34:35;;;;;;;1.00;1.00;;;-0.20;47.40;-1.10;98865.00;;;;5073919;28;20280;-75
2022/03/09 00:37:03;;;;;;;3.70;2.13;;;-0.20;47.30;-1.00;98860.00;;;;5073899;28;20290;-75
2022/03/09 00:39:29;;;;;;;1.60;1.50;;;-0.20;47.70;-1.10;98866.00;;;;5073953;28;20198;-77
2022/03/09 00:41:56;;;;;;;1.77;1.67;;;-0.10;47.30;-1.00;98859.00;;;;5073814;28;20238;-75
2022/03/09 00:44:22;;;;;;;1.50;1.17;;;-0.20;47.60;-1.20;98856.00;;;;5073804;28;20210;-75
2022/03/09 00:46:49;;;;;;;3.90;1.60;;;-0.20;47.50;-1.10;98852.00;;;;5073883;28;20207;-75
2022/03/09 00:49:16;;;;;;;1.27;1.27;;;-0.30;47.40;-1.20;98854.00;;;;5073787;28;20277;-74
2022/03/09 00:51:43;;;;;;;1.27;1.00;;;-0.30;47.60;-1.20;98843.00;;;;5072404;28;20296;-74
2022/03/09 00:54:09;;;;;;;2.53;2.20;;;-0.30;47.70;-1.20;98863.00;;;;5073560;28;20227;-75
2022/03/09 00:56:37;;;;;;;3.30;1.80;;;-0.40;47.70;-1.30;98854.00;;;;5073667;28;20214;-75
2022/03/09 00:59:04;;;;;;;1.07;1.07;;;-0.40;47.80;-1.30;98861.00;;;;5073518;28;20210;-75
2022/03/09 01:01:33;;;;;;;1.03;1.03;;;-0.40;47.80;-1.50;98858.00;;;;5073501;28;20612;-75
2022/03/09 01:04:00;;;;;;;1.63;1.53;;;-0.50;47.80;-1.80;98838.00;;;;5073498;28;20219;-75
2022/03/09 01:06:26;;;;;;;1.77;1.67;;;-0.70;48.20;-1.80;98856.00;;;;5055832;28;20647;-77
2022/03/09 01:08:57;;;;;;;1.17;1.17;;;-0.80;48.70;-1.90;98848.00;;;;5073387;28;20202;-74
2022/03/09 01:11:24;;;;;;;2.13;1.93;;;-0.80;49.20;-1.80;98850.00;;;;5073266;28;20290;-76
2022/03/09 01:13:50;;;;;;;2.13;1.97;;;-0.90;49.20;-1.50;98861.00;;;;5073445;28;20280;-75
2022/03/09 01:16:19;;;;;;;1.67;1.57;;;-0.70;49.30;-1.40;98852.00;;;;5055703;28;20274;-75
2022/03/09 01:18:46;;;;;;;2.87;2.03;;;-0.70;48.90;-1.60;98853.00;;;;5055552;28;20214;-75
2022/03/09 01:21:13;;;;;;;1.97;1.67;;;-0.70;48.30;-2.00;98854.00;;;;5073288;28;20295;-75
2022/03/09 01:23:39;;;;;;;1.03;1.03;;;-0.90;48.70;-1.90;98848.00;;;;5073209;28;20607;-75
2022/03/09 01:26:06;;;;;;;3.23;2.10;;;-1.00;49.20;-2.00;98853.00;;;;5073236;28;20197;-76
2022/03/09 01:28:34;;;;;;;1.97;1.87;;;-1.10;49.20;-2.00;98863.00;;;;5073038;28;20241;-76
2022/03/09 01:31:01;;;;;;;2.63;1.93;;;-1.10;49.50;-1.90;98863.00;;;;5073327;28;20198;-76
2022/03/09 01:33:28;;;;;;;2.03;1.83;;;-1.00;49.50;-2.00;98858.00;;;;5072944;28;20256;-76
2022/03/09 01:35:57;;;;;;;2.50;1.73;;;-1.00;49.20;-2.10;98850.00;;;;5073097;28;20509;-76
2022/03/09 01:38:24;;;;;;;9.57;1.67;;;-1.10;49.50;-2.10;98844.00;;;;5073058;28;20188;-76
2022/03/09 01:40:50;;;;;;;1.57;1.50;;;-1.10;49.60;-2.00;98853.00;;;;5072933;28;20235;-76
2022/03/09 01:43:18;;;;;;;1.00;1.00;;;-1.10;49.80;-1.80;98856.00;;;;5072893;28;20533;-76
2022/03/09 01:45:44;;;;;;;1.97;1.83;;;-0.90;49.90;-1.80;98843.00;;;;5072933;28;20195;-77
2022/03/09 01:48:11;;;;;;;1.50;1.40;;;-0.90;49.60;-1.90;98862.00;;;;5072898;28;20222;-76
2022/03/09 01:50:38;;;;;;;1.00;1.00;;;-1.00;49.30;-2.00;98847.00;;;;5072884;28;20316;-76
2022/03/09 01:53:06;;;;;;;1.20;1.20;;;-1.10;49.50;-2.00;98849.00;;;;5072661;28;20555;-75
2022/03/09 01:55:33;;;;;;;1.83;1.73;;;-1.00;50.50;-1.90;98841.00;;;;5072764;28;20752;-76
2022/03/09 01:58:00;;;;;;;1.93;1.63;;;-1.00;49.80;-2.10;98849.00;;;;5072754;28;20285;-76
2022/03/09 02:00:26;;;;;;;2.83;1.37;;;-1.10;49.40;-2.10;98833.00;;;;5072717;28;20225;-76
2022/03/09 02:02:53;;;;;;;2.70;2.47;;;-1.10;49.80;-2.10;98832.00;;;;5073681;28;20269;-76
2022/03/09 02:05:20;;;;;;;2.47;2.30;;;-1.10;49.80;-2.00;98828.00;;;;5076181;28;20220;-76
2022/03/09 02:10:32;;;;;;;1.07;1.07;;;-1.10;50.00;-2.30;98835.00;;;;5076135;28;20610;-75
2022/03/09 02:12:58;;;;;;;1.30;1.20;;;-1.20;49.70;-2.40;98833.00;;;;5076139;28;20218;-76
2022/03/09 02:15:27;;;;;;;2.87;2.60;;;-1.40;50.60;-2.30;98827.00;;;;5076348;28;20285;-76
2022/03/09 02:17:53;;;;;;;2.33;2.17;;;-1.30;51.10;-2.20;98829.00;;;;5076193;28;20198;-77
2022/03/09 02:20:22;;;;;;;1.37;1.30;;;-1.30;51.20;-2.20;98830.00;;;;5083852;28;20231;-77
2022/03/09 02:22:53;;;;;;;5.60;2.23;;;-1.30;50.90;-2.10;98825.00;;;;5087756;28;20282;-77
2022/03/09 02:25:22;;;;;;;1.60;1.50;;;-1.20;51.00;-2.20;98817.00;;;;5088262;28;20210;-77
2022/03/09 02:27:48;;;;;;;7.97;1.63;;;-1.30;50.80;-2.30;98818.00;;;;5088034;28;20225;-77
2022/03/09 02:30:17;;;;;;;1.73;1.63;;;-1.30;51.10;-2.20;98816.00;;;;5068977;28;20210;-76
2022/03/09 02:32:46;;;;;;;1.60;1.60;;;-1.30;51.50;-2.10;98817.00;;;;5077278;28;20637;-78
2022/03/09 02:35:15;;;;;;;2.50;1.73;;;-1.20;51.50;-2.20;98815.00;;;;5077043;28;20337;-76
2022/03/09 02:37:43;;;;;;;2.13;2.03;;;-1.20;51.20;-2.10;98821.00;;;;5076965;28;20634;-76
2022/03/09 02:40:14;;;;;;;1.70;1.60;;;-1.20;51.20;-2.10;98805.00;;;;5076583;28;20237;-76
2022/03/09 02:42:41;;;;;;;7.53;1.47;;;-1.20;51.10;-2.20;98815.00;;;;5076117;28;20198;-76
2022/03/09 02:45:09;;;;;;;1.57;1.37;;;-1.30;51.00;-2.20;98811.00;;;;5075998;28;20268;-76
2022/03/09 02:47:39;;;;;;;3.90;1.83;;;-1.20;51.00;-2.20;98810.00;;;;5080802;28;20221;-76
2022/03/09 02:50:07;;;;;;;3.47;2.30;;;-1.30;51.00;-2.20;98778.00;;;;5085587;28;20199;-77
2022/03/09 02:52:38;;;;;;;2.73;1.70;;;-1.30;50.90;-2.20;98800.00;;;;5086153;28;20245;-76
2022/03/09 02:55:07;;;;;;;1.37;1.30;;;-1.30;50.80;-2.30;98802.00;;;;5083938;28;20214;-76
2022/03/09 02:57:34;;;;;;;4.33;2.10;;;-1.30;50.70;-2.40;98800.00;;;;5081835;28;20208;-76
2022/03/09 03:00:01;;;;;;;2.30;1.97;;;-1.40;50.80;-2.50;98793.00;;;;5076652;28;20265;-76
2022/03/09 03:02:27;;;;;;;2.27;2.17;;;-1.50;50.90;-2.60;98805.00;;;;5076617;28;20212;-76
2022/03/09 03:04:53;;;;;;;2.40;2.30;;;-1.50;51.00;-2.60;98799.00;;;;5075935;28;20331;-76
2022/03/09 03:07:20;;;;;;;8.20;2.57;;;-1.60;51.30;-2.50;98807.00;;;;5075328;28;20245;-76
2022/03/09 03:09:46;;;;;;;1.63;1.53;;;-1.60;51.80;-2.50;98817.00;;;;5075400;28;20397;-76
2022/03/09 03:12:13;;;;;;;3.67;2.60;;;-1.60;51.80;-2.60;98826.00;;;;5075132;28;20251;-76
2022/03/09 03:14:42;;;;;;;1.53;1.30;;;-1.60;51.50;-2.80;98808.00;;;;5074313;28;20230;-76
2022/03/09 03:17:12;;;;;;;5.40;2.10;;;-1.70;51.50;-2.80;98809.00;;;;5075376;28;20217;-76
2022/03/09 03:19:41;;;;;;;0.90;0.90;;;-1.80;52.10;-2.70;98815.00;;;;5075076;28;20203;-76
2022/03/09 03:22:08;;;;;;;2.00;1.60;;;-1.80;52.30;-2.70;98822.00;;;;5075065;28;20284;-76
2022/03/09 03:24:34;;;;;;;1.97;1.87;;;-1.70;52.20;-2.50;98825.00;;;;5075114;28;20233;-78
2022/03/09 03:27:01;;;;;;;0.97;0.97;;;-1.60;52.30;-2.70;98827.00;;;;5074911;28;20237;-76
2022/03/09 03:29:27;;;;;;;1.87;1.77;;;-1.70;51.90;-3.00;98818.00;;;;5057303;28;20679;-76
2022/03/09 03:31:54;;;;;;;2.23;2.10;;;-1.80;52.00;-3.10;98827.00;;;;5057236;28;20217;-77
2022/03/09 03:34:21;;;;;;;1.77;1.67;;;-2.00;53.10;-3.10;98829.00;;;;5074758;28;20273;-76
2022/03/09 03:36:48;;;;;;;3.13;1.70;;;-2.00;53.20;-2.90;98835.00;;;;5074828;28;20522;-76
2022/03/09 03:39:16;;;;;;;2.93;1.87;;;-1.90;53.90;-2.80;98831.00;;;;5074754;28;20206;-76
2022/03/09 03:41:43;;;;;;;7.00;2.33;;;-1.90;53.80;-2.70;98836.00;;;;5074734;28;20661;-76
2022/03/09 03:44:09;;;;;;;3.43;2.20;;;-1.80;54.10;-2.70;98841.00;;;;5074829;28;20214;-76
2022/03/09 03:46:36;;;;;;;0.90;0.90;;;-1.80;53.00;-2.70;98838.00;;;;5057154;28;20277;-76
2022/03/09 03:49:04;;;;;;;1.93;1.83;;;-1.70;52.80;-2.70;98846.00;;;;5074738;28;20217;-77
2022/03/09 03:51:30;;;;;;;2.07;1.97;;;-1.80;52.80;-2.80;98851.00;;;;5074750;28;20528;-77
2022/03/09 03:53:59;;;;;;;1.07;1.07;;;-1.80;52.40;-2.90;98842.00;;;;5074488;28;20317;-77
2022/03/09 03:56:28;;;;;;;1.03;1.03;;;-1.90;52.20;-2.90;98858.00;;;;5074577;28;20203;-77
2022/03/09 03:58:55;;;;;;;2.50;1.73;;;-1.90;52.50;-2.80;98844.00;;;;5056837;28;20213;-76
2022/03/09 04:01:21;;;;;;;1.70;1.60;;;-1.90;52.60;-3.00;98844.00;;;;5074590;28;20274;-76
2022/03/09 04:03:50;;;;;;;1.47;1.37;;;-2.00;52.60;-3.00;98842.00;;;;5074496;28;20198;-77
2022/03/09 04:06:18;;;;;;;1.60;1.50;;;-2.10;53.20;-3.00;98840.00;;;;5074473;28;20211;-76
2022/03/09 04:08:46;;;;;;;1.10;1.10;;;-2.10;53.30;-3.10;98847.00;;;;5074419;28;20221;-77
2022/03/09 04:11:13;;;;;;;2.07;1.97;;;-2.10;53.60;-3.20;98846.00;;;;5074520;28;20366;-76
2022/03/09 04:13:42;;;;;;;1.43;1.43;;;-2.20;53.70;-3.10;98851.00;;;;5074303;28;20233;-77
2022/03/09 04:16:11;;;;;;;2.47;1.93;;;-2.20;53.90;-3.20;98845.00;;;;5074332;28;20623;-77
2022/03/09 04:18:37;;;;;;;1.63;1.53;;;-2.20;53.30;-3.30;98837.00;;;;5074113;28;20214;-77
2022/03/09 04:21:04;;;;;;;1.27;1.27;;;-2.20;53.30;-3.40;98846.00;;;;5074161;28;20755;-77
2022/03/09 04:23:31;;;;;;;0.90;0.90;;;-2.30;53.60;-3.30;98832.00;;;;5074263;28;20200;-77
2022/03/09 04:25:58;;;;;;;1.27;1.27;;;-2.30;53.70;-3.40;98835.00;;;;5074424;28;20636;-77
2022/03/09 04:28:24;;;;;;;3.57;1.43;;;-2.30;54.20;-3.20;98830.00;;;;5074336;28;20204;-77
2022/03/09 04:30:51;;;;;;;1.47;1.37;;;-2.30;54.50;-3.20;98830.00;;;;5074130;28;20586;-77
2022/03/09 04:33:17;;;;;;;1.03;1.03;;;-2.20;54.00;-3.30;98837.00;;;;5073896;28;20228;-77
2022/03/09 04:35:44;;;;;;;3.00;2.37;;;-2.20;54.00;-3.20;98827.00;;;;5074248;28;20234;-77
2022/03/09 04:38:10;;;;;;;2.90;2.37;;;-2.20;53.90;-3.20;98825.00;;;;5074127;28;20284;-77
2022/03/09 04:40:38;;;;;;;0.90;0.90;;;-2.30;54.00;-3.30;98827.00;;;;5056525;28;20683;-78
2022/03/09 04:43:05;;;;;;;1.10;1.10;;;-2.20;53.50;-3.30;98820.00;;;;5073828;28;20209;-77
2022/03/09 04:45:31;;;;;;;1.10;1.10;;;-2.30;53.50;-3.40;98835.00;;;;5073923;28;20219;-77
2022/03/09 04:47:58;;;;;;;1.53;1.40;;;-2.40;53.60;-3.40;98832.00;;;;5073740;28;20193;-77
2022/03/09 04:50:24;;;;;;;2.20;2.00;;;-2.40;54.10;-3.30;98836.00;;;;5073761;28;20204;-77
2022/03/09 04:52:51;;;;;;;1.87;1.77;;;-2.30;54.70;-3.30;98834.00;;;;5073451;28;20628;-76
2022/03/09 04:55:17;;;;;;;3.10;1.53;;;-2.20;54.20;-3.30;98834.00;;;;5073680;28;20189;-77
2022/03/09 04:57:47;;;;;;;1.13;1.13;;;-2.30;54.30;-3.20;98835.00;;;;5073773;28;20192;-77
2022/03/09 05:00:14;;;;;;;1.57;1.47;;;-2.30;54.20;-3.20;98841.00;;;;5073628;28;20615;-77
2022/03/09 05:02:41;;;;;;;1.07;1.07;;;-2.30;54.30;-3.30;98839.00;;;;5073858;28;20300;-77
2022/03/09 05:05:10;;;;;;;1.27;1.27;;;-2.30;54.40;-3.30;98826.00;;;;5073859;28;20236;-76
2022/03/09 05:07:40;;;;;;;1.40;1.37;;;-2.30;54.50;-3.30;98822.00;;;;5056040;28;20226;-76
2022/03/09 05:10:08;;;;;;;1.73;1.63;;;-2.30;54.40;-3.30;98825.00;;;;5073556;28;20213;-75
2022/03/09 05:12:35;;;;;;;1.17;1.17;;;-2.30;54.60;-3.50;98808.00;;;;5073560;28;20245;-76
2022/03/09 05:15:02;;;;;;;2.23;2.13;;;-2.40;54.60;-3.50;98821.00;;;;5073423;28;20286;-76
2022/03/09 05:17:31;;;;;;;3.17;1.40;;;-2.50;54.60;-3.50;98830.00;;;;5073357;28;20198;-76
2022/03/09 05:19:58;;;;;;;1.43;1.33;;;-2.50;55.00;-3.40;98835.00;;;;5073519;28;20229;-77
2022/03/09 05:22:25;;;;;;;1.57;1.47;;;-2.50;55.10;-3.40;98838.00;;;;5073366;28;20237;-78
2022/03/09 05:24:51;;;;;;;1.10;1.10;;;-2.50;55.10;-3.40;98834.00;;;;5073517;28;20212;-76
2022/03/09 05:27:18;;;;;;;1.03;1.03;;;-2.40;55.10;-3.40;98839.00;;;;5073319;28;20254;-76
2022/03/09 05:29:44;;;;;;;1.90;1.80;;;-2.50;54.70;-3.40;98846.00;;;;5073363;28;20662;-76
2022/03/09 05:32:14;;;;;;;1.00;1.00;;;-2.40;55.00;-3.50;98852.00;;;;5073262;28;20274;-77
2022/03/09 05:34:40;;;;;;;1.87;1.70;;;-2.40;54.50;-3.60;98845.00;;;;5073203;28;20289;-76
2022/03/09 05:37:07;;;;;;;2.67;1.97;;;-2.50;54.60;-3.50;98856.00;;;;5073111;28;20674;-76
2022/03/09 05:39:33;;;;;;;1.70;1.60;;;-2.50;54.40;-3.50;98852.00;;;;5076498;28;20270;-77
2022/03/09 05:42:00;;;;;;;2.37;1.67;;;-2.50;54.40;-3.40;98868.00;;;;5076567;28;20649;-76
2022/03/09 05:44:29;;;;;;;1.13;1.13;;;-2.40;54.50;-3.40;98876.00;;;;5076498;28;20249;-76
2022/03/09 05:46:58;;;;;;;1.77;1.67;;;-2.40;54.10;-3.50;98862.00;;;;5076222;28;20220;-77
2022/03/09 05:49:25;;;;;;;3.57;1.33;;;-2.40;54.40;-3.50;98871.00;;;;5059046;28;20214;-76
2022/03/09 05:51:52;;;;;;;2.63;2.20;;;-2.50;54.20;-3.70;98869.00;;;;5076681;28;20234;-76
2022/03/09 05:54:19;;;;;;;1.13;1.13;;;-2.50;54.30;-3.60;98868.00;;;;5058771;28;20226;-76
2022/03/09 05:56:46;;;;;;;2.47;1.53;;;-2.50;54.80;-3.60;98883.00;;;;5076726;28;20204;-77
2022/03/09 05:59:13;;;;;;;1.67;1.57;;;-2.60;55.20;-3.60;98861.00;;;;5076579;28;20239;-76
2022/03/09 06:01:40;;;;;;;1.33;1.30;;;-2.50;55.50;-3.40;98886.00;;;;5076410;28;20661;-76
2022/03/09 06:04:06;;;;;;;1.50;1.40;;;-2.50;56.30;-3.30;98894.00;;;;5076277;28;20278;-76
2022/03/09 06:06:34;;;;;;;3.00;1.87;;;-2.40;55.60;-3.40;98890.00;;;;5076232;28;20307;-76
2022/03/09 06:09:00;;;;;;;1.63;1.53;;;-2.40;55.00;-3.30;98879.00;;;;5076222;28;20200;-76
2022/03/09 06:11:27;;;;;;;1.20;1.20;;;-2.40;55.40;-3.50;98884.00;;;;5076243;28;20296;-76
2022/03/09 06:13:53;;;;;;;0.90;0.90;;;-2.40;54.80;-3.60;98884.00;;;;5075984;28;20299;-76
2022/03/09 06:16:20;;;;;;;1.80;1.70;;;-2.50;55.20;-3.30;98894.00;;;;5076327;28;20201;-76
2022/03/09 06:18:49;;;;;;;1.53;1.47;;;-2.40;55.50;-3.20;98891.00;;;;5076083;28;20627;-75
2022/03/09 06:21:15;;;;;;;2.60;2.40;;;-2.30;55.70;-3.20;98893.00;;;;5058580;28;20561;-77
2022/03/09 06:23:45;;;;;;;1.60;1.50;;;-2.20;55.60;-3.20;98899.00;;;;5076349;28;20204;-78
2022/03/09 06:26:13;;;;;;;0.90;0.90;;;-2.20;55.30;-3.50;98894.00;;;;5076345;28;20240;-79
2022/03/09 06:28:40;;;;;;;1.40;1.33;;;-2.40;55.60;-3.60;98901.00;;;;5076341;28;20212;-76
2022/03/09 06:31:07;;;;;;;2.10;1.57;;;-2.40;55.40;-3.40;98908.00;;;;5076473;28;20227;-78
2022/03/09 06:33:34;;;;;;;2.50;2.40;;;-2.40;55.90;-3.30;98915.00;;;;5076380;28;20706;-79
2022/03/09 06:36:06;;;;;;;2.17;1.80;;;-2.30;55.90;-3.20;98899.00;;;;5077067;28;20205;-78
2022/03/09 06:38:33;;;;;;;2.03;1.83;;;-2.30;55.90;-3.30;98885.00;;;;5077077;28;20649;-79
2022/03/09 06:41:00;;;;;;;1.47;1.37;;;-2.30;55.70;-3.20;98904.00;;;;5076812;28;20206;-77
2022/03/09 06:43:26;;;;;;;2.63;2.50;;;-2.20;55.60;-3.00;98907.00;;;;5077913;28;20513;-78
2022/03/09 06:45:53;;;;;;;1.10;1.10;;;-2.10;55.80;-3.10;98905.00;;;;5081723;28;20648;-79
2022/03/09 06:48:20;;;;;;;1.73;1.63;;;-2.10;55.60;-3.00;98905.00;;;;5086250;28;20362;-79
2022/03/09 06:50:46;;;;;;;1.07;1.07;;;-2.10;55.90;-3.10;98908.00;;;;5085968;28;20205;-78
2022/03/09 06:53:13;;;;;;;1.83;1.73;;;-2.00;56.20;-2.90;98897.00;;;;5084911;28;20252;-80
2022/03/09 06:55:39;;;;;;;2.40;2.20;;;-1.90;56.20;-2.90;98913.00;;;;5085223;28;20224;-78
2022/03/09 06:58:06;;;;;;;1.83;1.73;;;-1.90;56.30;-2.90;98911.00;;;;5085145;28;20197;-80
2022/03/09 07:00:33;;;;;;;2.13;1.93;;;-1.80;55.80;-2.70;98920.00;;;;5084862;28;20637;-79
2022/03/09 07:03:02;;;;;;;1.70;1.60;;;-1.70;55.80;-2.60;98930.00;;;;5082082;28;20218;-79
2022/03/09 07:05:28;;;;;;;1.80;1.70;;;-1.70;55.70;-2.50;98928.00;;;;5083401;28;20270;-80
2022/03/09 07:07:55;;;;;;;3.70;2.53;;;-1.60;55.60;-2.50;98945.00;;;;5085195;28;20278;-82
2022/03/09 07:10:21;;;;;;;1.73;1.63;;;-1.50;55.30;-2.40;98943.00;;;;5086657;28;20193;-79
2022/03/09 07:12:48;;;;;;;3.20;3.00;;;-1.40;55.30;-2.40;98938.00;;;;5085316;28;20259;-82
2022/03/09 07:15:16;;;;;;;2.50;2.30;;;-1.40;55.10;-2.20;98943.00;;;;5084892;28;20305;-77
2022/03/09 07:17:43;;;;;;;2.20;2.00;;;-1.30;55.50;-2.10;98943.00;;;;5079508;28;20294;-74
2022/03/09 07:20:12;;;;;;;2.07;1.97;;;-1.20;55.10;-1.90;98947.00;;;;5075648;28;20347;-74
2022/03/09 07:22:39;;;;;;;2.53;2.33;;;-1.10;54.80;-1.90;98938.00;;;;5075675;28;20663;-74
2022/03/09 07:25:10;;;;;;;1.97;1.87;;;-1.00;54.70;-1.80;98950.00;;;;5075154;28;20565;-74
2022/03/09 07:27:36;;;;;;;1.87;1.77;;;-0.90;54.70;-1.60;98941.00;;;;5074886;28;20293;-75
2022/03/09 07:30:04;;;;;;;1.63;1.53;;;-0.70;55.10;-1.40;98944.00;;;;5074937;28;20210;-74
2022/03/09 07:32:32;;;;;;;2.50;1.67;;;-0.60;54.80;-1.40;98948.00;;;;5074844;28;20248;-73
2022/03/09 07:34:58;;;;;;;2.13;1.90;;;;;-1.30;98943.00;;;;5074690;28;20198;-75
2022/03/09 07:37:25;;;;;;;1.77;1.67;;;-0.40;53.10;-1.10;98948.00;;;;5074797;28;20215;-77
2022/03/09 07:40:43;;;;;;;2.00;1.90;;;-0.30;53.30;-1.20;98966.00;;;;5057323;28;20259;-74
2022/03/09 07:43:11;;;;;;;1.30;1.30;;;-0.20;52.80;-1.10;98968.00;;;;5075264;28;20233;-74
2022/03/09 07:45:37;;;;;;;1.30;1.27;;;-0.20;52.90;-1.00;98968.00;;;;5075979;28;20279;-76
2022/03/09 07:48:08;;;;;;;3.20;2.73;;;-0.10;52.80;-0.90;98961.00;;;;5065775;28;20230;-76
2022/03/09 07:50:36;;;;;;;4.43;1.80;;;0.00;52.30;-0.70;98978.00;;;;5085909;28;20227;-78
2022/03/09 07:53:04;;;;;;;2.07;1.97;;;0.10;52.30;-0.60;98969.00;;;;5086180;28;20211;-77
2022/03/09 07:55:30;;;;;;;2.20;1.83;;;0.20;51.90;-0.60;98975.00;;;;5091285;28;20255;-76
2022/03/09 07:57:57;;;;;;;1.67;1.57;;;;;-0.50;98981.00;;;;5085745;28;20222;-78
2022/03/09 08:00:24;;;;;;;2.60;2.40;;;0.40;51.10;-0.50;98975.00;;;;5076852;28;20218;-76
2022/03/09 08:02:50;;;;;;;2.13;2.03;;;0.50;51.80;-0.30;98971.00;;;;5077901;28;20708;-76
2022/03/09 08:05:21;;;;;;;1.63;1.53;;;0.60;51.80;-0.20;98964.00;;;;5078605;28;20617;-74
2022/03/09 08:07:47;;;;;;;1.67;1.57;;;0.70;51.80;0.00;98963.00;;;;5076090;28;20279;-74
2022/03/09 08:10:14;;;;;;;2.10;2.00;;;0.90;51.50;0.20;98960.00;;;;5076727;28;20225;-74
2022/03/09 08:12:41;;;;;;;0.80;0.80;;;1.00;51.50;0.40;98970.00;;;;5079411;28;20212;-75
2022/03/09 08:15:09;;;;;;;5.90;2.40;;;1.20;50.90;0.50;98962.00;;;;5066112;28;20205;-74
2022/03/09 08:17:36;;;;;;;1.53;1.43;;;1.40;50.20;0.70;98970.00;;;;5085063;28;20306;-75
2022/03/09 08:20:03;;;;;;;1.20;1.20;;;1.50;49.10;1.00;98971.00;;;;5084659;28;20207;-75
2022/03/09 08:22:30;;;;;;;2.50;2.10;;;1.80;47.50;1.10;98974.00;;;;5083457;28;20310;-74
2022/03/09 08:24:59;;;;;;;1.37;1.37;;;1.90;47.00;1.40;98968.00;;;;5078279;28;20539;-75
2022/03/09 08:27:25;;;;;;;1.83;1.63;;;2.20;46.10;1.50;98964.00;;;;5076694;28;20280;-74
2022/03/09 08:29:52;;;;;;;2.00;1.87;;;2.30;45.90;1.60;98968.00;;;;5076367;28;20258;-75
2022/03/09 08:32:19;;;;;;;3.33;1.13;;;2.40;45.40;1.80;98973.00;;;;5074385;28;20213;-76
2022/03/09 08:34:46;;;;;;;3.07;2.03;;;2.60;45.10;1.80;98972.00;;;;5057277;28;20510;-75
2022/03/09 08:37:13;;;;;;;1.87;1.77;;;2.70;44.50;2.20;98960.00;;;;5074264;28;20230;-76
2022/03/09 08:39:43;;;;;;;2.50;2.30;;;2.80;43.00;2.30;98965.00;;;;5056491;28;20581;-73
2022/03/09 08:42:10;;;;;;;1.57;1.47;;;3.00;41.40;2.40;98966.00;;;;5074063;28;20790;-72
2022/03/09 08:44:37;;;;;;;2.50;2.07;;;3.20;41.40;2.40;98967.00;;;;5073959;28;20190;-73
2022/03/09 08:47:04;;;;;;;2.50;2.30;;;3.30;40.90;2.70;98946.00;;;;5073695;28;20194;-74
2022/03/09 08:49:33;;;;;;;2.20;1.27;;;3.40;39.90;2.80;98965.00;;;;5056311;28;20697;-73
2022/03/09 08:52:00;;;;;;;1.60;1.50;;;3.60;39.10;2.80;98960.00;;;;5073689;28;20656;-73
2022/03/09 08:54:27;;;;;;;3.53;2.60;;;3.60;39.20;3.00;98954.00;;;;5073479;28;20223;-73
2022/03/09 08:56:54;;;;;;;5.47;1.90;;;3.80;39.10;3.00;98956.00;;;;5073659;28;20260;-75
2022/03/09 08:59:21;;;;;;;1.20;1.20;;;3.80;38.60;3.20;98963.00;;;;5073583;28;20714;-75
2022/03/09 09:01:47;;;;;;;2.20;2.10;;;3.90;38.30;3.20;98955.00;;;;5073637;28;20227;-74
2022/03/09 09:04:16;;;;;;;2.40;2.23;;;4.00;37.90;3.30;98959.00;;;;5056040;28;20314;-76
2022/03/09 09:06:43;;;;;;;1.20;1.20;;;4.10;38.20;3.40;98950.00;;;;5073582;28;20191;-76
2022/03/09 09:09:14;;;;;;;1.97;1.87;;;4.20;38.30;3.70;98943.00;;;;5073594;28;20255;-76
2022/03/09 09:11:41;;;;;;;2.10;1.77;;;4.40;37.40;3.60;98946.00;;;;5073327;28;20210;-77
2022/03/09 09:14:08;;;;;;;1.07;1.07;;;4.40;37.30;3.80;98944.00;;;;5072680;28;20212;-73
2022/03/09 09:16:34;;;;;;;2.97;2.70;;;4.50;37.10;4.00;98945.00;;;;5073285;28;20195;-74
2022/03/09 09:19:01;;;;;;;0.90;0.90;;;4.60;36.50;4.20;98941.00;;;;5073410;28;20211;-74
2022/03/09 09:21:28;;;;;;;2.70;2.10;;;4.80;36.00;4.20;98942.00;;;;5073469;28;20233;-73
2022/03/09 09:23:55;;;;;;;2.10;2.00;;;4.90;35.70;4.40;98940.00;;;;5073338;28;20534;-75
2022/03/09 09:26:21;;;;;;;4.27;2.13;;;5.10;35.00;4.50;98927.00;;;;5055603;28;20594;-73
2022/03/09 09:28:48;;;;;;;3.63;2.60;;;5.20;34.10;4.50;98921.00;;;;5073201;28;20241;-77
2022/03/09 09:31:15;;;;;;;1.87;1.10;;;5.20;34.60;4.60;98931.00;;;;5073081;28;20199;-73
2022/03/09 09:33:43;;;;;;;1.50;1.40;;;5.40;33.80;4.90;98934.00;;;;5073035;28;20246;-75
2022/03/09 09:36:09;;;;;;;1.47;1.43;;;5.60;33.10;4.90;98928.00;;;;5073199;28;20711;-74
2022/03/09 09:38:36;;;;;;;1.87;1.77;;;5.60;33.60;4.90;98932.00;;;;5073122;28;20226;-74
2022/03/09 09:41:05;;;;;;;1.13;1.13;;;5.70;33.90;5.00;98932.00;;;;5055424;28;20260;-74
2022/03/09 09:43:32;;;;;;;2.07;1.57;;;5.80;33.90;5.20;98937.00;;;;5073136;28;20211;-73
2022/03/09 09:46:01;;;;;;;1.40;1.40;;;5.90;33.80;5.20;98936.00;;;;5073305;28;20279;-73
2022/03/09 09:48:28;;;;;;;1.60;1.50;;;6.00;33.90;5.20;98932.00;;;;5072873;28;20604;-73
2022/03/09 09:50:57;;;;;;;0.80;0.80;;;6.00;32.80;5.70;98932.00;;;;5073345;28;20209;-74
2022/03/09 09:53:24;;;;;;;2.20;1.60;;;6.30;32.50;5.70;98919.00;;;;5072867;28;20238;-75
2022/03/09 09:55:51;;;;;;;4.13;2.17;;;6.40;31.70;5.70;98924.00;;;;5055221;28;20200;-76
2022/03/09 09:58:20;;;;;;;1.90;1.80;;;6.40;32.30;5.80;98921.00;;;;5072906;28;20242;-74
2022/03/09 10:00:46;;;;;;;1.17;1.17;;;6.50;32.00;5.70;98931.00;;;;5072640;28;20212;-75
2022/03/09 10:03:14;;;;;;;1.63;1.53;;;6.50;32.30;5.80;98919.00;;;;5072857;28;20201;-75
2022/03/09 10:05:42;;;;;;;2.50;2.30;;;6.60;32.20;6.20;98924.00;;;;5072698;28;20200;-75
2022/03/09 10:08:17;;;;;;;1.00;1.00;;;6.80;31.60;6.20;98922.00;;;;5073011;28;20645;-76
2022/03/09 10:10:56;;;;;;;1.50;1.40;;;6.90;31.00;6.20;98928.00;;;;5072897;28;20706;-75
2022/03/09 10:13:26;;;;;;;2.33;1.67;;;6.90;30.60;6.30;98928.00;;;;5072621;28;20271;-73
2022/03/09 10:16:15;;;;;;;2.83;1.63;;;6.90;30.30;6.50;98937.00;;;;5072922;28;20536;-73
2022/03/09 10:18:49;;;;;;;2.33;2.13;;;7.10;30.20;6.60;98922.00;;;;5072749;28;20641;-74
2022/03/09 10:21:19;;;;;;;2.67;2.47;;;7.30;30.50;6.80;98934.00;;;;5072566;28;20276;-74
2022/03/09 10:23:53;;;;;;;2.07;1.97;;;7.40;30.50;7.00;98938.00;;;;5073256;28;20209;-74
2022/03/09 10:26:23;;;;;;;2.40;2.20;;;7.60;30.00;7.30;98932.00;;;;5076251;28;20224;-73
2022/03/09 10:29:01;;;;;;;1.77;1.67;;;7.80;29.40;7.40;98935.00;;;;5076265;28;20218;-77
2022/03/09 10:31:34;;;;;;;2.63;2.43;;;8.00;29.70;7.50;98949.00;;;;5076175;28;20343;-78
2022/03/09 10:34:10;;;;;;;1.93;1.83;;;8.20;29.10;7.80;98942.00;;;;5075824;28;20226;-78
2022/03/09 10:36:38;;;;;;;2.53;2.33;;;8.30;28.70;8.10;98943.00;;;;5075807;28;20630;-77
2022/03/09 10:39:16;;;;;;;2.77;2.53;;;8.60;28.60;8.10;98943.00;;;;5075701;28;20235;-78
2022/03/09 10:41:43;;;;;;;1.67;1.57;;;8.70;27.80;8.20;98941.00;;;;5075928;28;20206;-75
2022/03/09 10:44:10;;;;;;;2.73;2.23;;;8.80;27.60;8.40;98939.00;;;;5075891;28;20230;-74
2022/03/09 10:46:43;;;;;;;1.03;1.03;;;9.00;28.20;8.40;98939.00;;;;5075706;28;20191;-75
2022/03/09 10:49:13;;;;;;;2.40;1.83;;;9.10;27.40;8.60;98946.00;;;;5075904;28;20196;-74
2022/03/09 10:51:44;;;;;;;1.90;1.80;;;9.20;28.40;8.90;98939.00;;;;5074570;28;20231;-74
2022/03/09 10:54:16;;;;;;;1.63;1.53;;;9.40;27.00;9.00;98941.00;;;;5075571;28;20233;-76
2022/03/09 10:56:45;;;;;;;1.47;1.37;;;9.60;26.80;9.20;98949.00;;;;5058126;28;20213;-75
2022/03/09 10:59:15;;;;;;;1.87;1.77;;;9.70;26.40;9.30;98938.00;;;;5075415;28;20261;-73
2022/03/09 11:02:02;;;;;;;3.43;2.50;;;9.90;27.00;9.50;98951.00;;;;5075803;28;20215;-74
2022/03/09 11:04:28;;;;;;;4.50;3.33;;;10.00;26.30;9.60;98951.00;;;;5075285;28;20235;-74